Time;durP1;ratioP1;P1;durP2;ratioP2;P2;SDS_P1;SDS_P2;PMS_P1;PMS_P2;Temp;Humidity;BMP_temperature;BMP_pressure;BME280_temperature;BME280_humidity;BME280_pressure;Samples;Min_cycle;Max_cycle;Signal;HPM_P1;HPM_P2
2021/06/16 00:01:23;;;;;;;;;;;;;;;29.62;67.85;100889.25;5068711;27;68623;-40
2021/06/16 00:03:54;;;;;;;;;;;;;;;29.67;68.39;100886.78;5086158;27;65376;-40
2021/06/16 00:06:26;;;;;;;;;;;;;;;29.70;68.25;100885.50;5083408;27;69869;-38
2021/06/16 00:08:57;;;;;;;;;;;;;;;29.73;68.28;100891.34;5086426;27;66071;-40
2021/06/16 00:11:28;;;;;;;;;;;;;;;29.74;69.22;100887.59;5088117;27;70220;-37
2021/06/16 00:13:58;;;;;;;;;;;;;;;29.78;68.69;100893.38;5084957;27;66919;-35
2021/06/16 00:16:29;;;;;;;;;;;;;;;29.80;68.86;100904.81;5063365;27;70199;-34
2021/06/16 00:19:00;;;;;;;;;;;;;;;29.83;68.68;100902.53;5081326;27;68154;-33
2021/06/16 00:21:32;;;;;;;;;;;;;;;29.84;69.24;100898.78;5092517;27;69910;-35
2021/06/16 00:24:04;;;;;;;;;;;;;;;29.90;69.39;100907.09;5081463;27;66599;-36
2021/06/16 00:26:34;;;;;;;;;;;;;;;29.92;69.43;100905.84;5084846;27;69039;-34
2021/06/16 00:29:05;;;;;;;;;;;;;;;29.96;70.10;100906.25;5085489;27;66871;-35
2021/06/16 00:31:36;;;;;;;;;;;;;;;30.01;69.31;100909.97;5081405;27;69872;-35
2021/06/16 00:34:07;;;;;;;;;;;;;;;30.07;68.69;100916.41;5080108;27;66071;-34
2021/06/16 00:36:37;;;;;;;;;;;;;;;30.11;68.73;100923.03;5090184;27;69887;-35
2021/06/16 00:39:09;;;;;;;;;;;;;;;30.16;68.60;100923.22;5085104;27;66367;-34
2021/06/16 00:41:39;;;;;;;;;;;;;;;30.22;68.00;100927.78;5089342;27;68894;-37
2021/06/16 00:44:11;;;;;;;;;;;;;;;30.26;68.37;100936.34;5083572;27;66192;-34
2021/06/16 00:46:57;;;;;;;;;;;;;;;30.27;68.06;100938.81;5084992;27;70280;-33
2021/06/16 00:50:15;;;;;;;;;;;;;;;30.32;67.58;100942.75;5081093;27;65331;-34
2021/06/16 00:53:19;;;;;;;;;;;;;;;30.36;67.15;100952.91;5082418;27;69511;-33
2021/06/16 00:55:50;;;;;;;;;;;;;;;30.38;67.51;100947.31;5090650;27;66854;-33
2021/06/16 00:58:22;;;;;;;;;;;;;;;30.41;67.32;100957.69;5083936;27;69737;-33
2021/06/16 01:04:15;;;;;;;;;;;;;;;30.44;67.17;100968.09;5089496;27;70504;-34
2021/06/16 01:06:51;;;;;;;;;;;;;;;30.46;66.56;100971.44;5088341;27;66737;-37
2021/06/16 01:09:44;;;;;;;;;;;;;;;30.47;66.65;100984.72;5089378;27;70812;-33
2021/06/16 01:12:56;;;;;;;;;;;;;;;30.49;66.74;100985.34;5084005;27;65822;-33
2021/06/16 01:15:30;;;;;;;;;;;;;;;30.53;66.44;100987.63;5064505;27;71005;-33
2021/06/16 01:18:03;;;;;;;;;;;;;;;30.54;66.45;100995.53;5091320;27;65923;-34
2021/06/16 01:20:35;;;;;;;;;;;;;;;30.55;66.59;100980.94;5082843;27;70119;-34
2021/06/16 01:23:09;;;;;;;;;;;;;;;30.56;66.38;100988.00;5082114;27;66098;-33
2021/06/16 01:25:58;;;;;;;;;;;;;;;30.58;66.12;100985.94;5091754;27;70294;-34
2021/06/16 01:28:32;;;;;;;;;;;;;;;30.61;66.31;100985.50;5090992;27;65395;-32
2021/06/16 01:31:03;;;;;;;;;;;;;;;30.62;66.53;100984.47;5058293;27;69512;-34
2021/06/16 01:33:35;;;;;;;;;;;;;;;30.64;66.06;100989.66;5087510;27;65712;-36
2021/06/16 01:36:06;;;;;;;;;;;;;;;30.64;65.73;100998.59;5077611;27;70007;-33
2021/06/16 01:38:37;;;;;;;;;;;;;;;30.66;66.01;100999.22;5085816;27;65338;-33
2021/06/16 01:41:09;;;;;;;;;;;;;;;30.68;66.31;101007.97;5085584;27;70070;-33
2021/06/16 01:43:41;;;;;;;;;;;;;;;30.70;65.80;101010.44;5075557;27;66433;-35
2021/06/16 01:46:30;;;;;;;;;;;;;;;30.71;65.97;101007.53;5084452;27;68861;-34
2021/06/16 01:49:23;;;;;;;;;;;;;;;30.73;65.89;101010.88;5084245;27;65247;-34
2021/06/16 01:51:55;;;;;;;;;;;;;;;30.75;65.75;101012.50;5090580;27;69824;-33
2021/06/16 01:54:26;;;;;;;;;;;;;;;30.76;65.44;101014.16;5090581;27;66157;-34
2021/06/16 01:56:58;;;;;;;;;;;;;;;30.78;65.36;101009.38;5081364;27;69865;-34
2021/06/16 01:59:30;;;;;;;;;;;;;;;30.78;65.60;101002.06;5079200;27;66077;-33
2021/06/16 02:02:16;;;;;;;;;;;;;;;30.79;65.78;101014.59;5078509;27;69919;-33
2021/06/16 02:05:17;;;;;;;;;;;;;;;30.82;65.88;101013.34;5071237;27;65908;-34
2021/06/16 02:08:22;;;;;;;;;;;;;;;30.84;65.53;101008.53;5068012;27;68730;-33
2021/06/16 02:11:33;;;;;;;;;;;;;;;30.86;65.09;101006.44;5077118;27;66556;-34
2021/06/16 02:14:06;;;;;;;;;;;;;;;30.86;65.11;101004.56;5073331;27;70793;-34
2021/06/16 02:16:55;;;;;;;;;;;;;;;30.89;65.16;101011.41;5077267;27;65749;-33
2021/06/16 02:19:29;;;;;;;;;;;;;;;30.90;65.59;101011.22;5089211;27;70180;-33
2021/06/16 02:22:01;;;;;;;;;;;;;;;30.93;65.27;101004.53;5083938;27;66273;-33
2021/06/16 02:24:33;;;;;;;;;;;;;;;30.93;65.19;101008.06;5089124;27;69578;-34
2021/06/16 02:27:04;;;;;;;;;;;;;;;30.96;65.37;101008.69;5089428;27;65708;-33
2021/06/16 02:29:35;;;;;;;;;;;;;;;30.98;64.88;101007.44;5086703;27;70252;-34
2021/06/16 02:32:06;;;;;;;;;;;;;;;30.99;65.02;101014.50;5085276;27;66170;-34
2021/06/16 02:34:37;;;;;;;;;;;;;;;31.02;64.84;101018.66;5093726;27;69919;-34
2021/06/16 02:37:28;;;;;;;;;;;;;;;31.03;64.82;101015.69;5080636;27;65253;-34
2021/06/16 02:40:05;;;;;;;;;;;;;;;31.06;64.51;101017.97;5087147;27;70117;-34
2021/06/16 02:42:56;;;;;;;;;;;;;;;31.08;65.05;101009.63;5076400;27;66543;-33
2021/06/16 02:45:49;;;;;;;;;;;;;;;31.10;64.82;101011.09;5082774;27;69858;-34
2021/06/16 02:48:20;;;;;;;;;;;;;;;31.13;64.32;101007.94;5078509;27;65988;-33
2021/06/16 02:50:51;;;;;;;;;;;;;;;31.16;64.81;101009.38;5084158;27;69137;-32
2021/06/16 02:53:23;;;;;;;;;;;;;;;31.20;64.56;101004.34;5083549;27;67144;-34
2021/06/16 02:55:55;;;;;;;;;;;;;;;31.23;64.56;100998.47;5079669;27;69283;-33
2021/06/16 02:58:30;;;;;;;;;;;;;;;31.25;64.13;101002.63;5079292;27;65298;-34
2021/06/16 03:01:04;;;;;;;;;;;;;;;31.28;64.60;100995.94;5083853;27;69862;-34
2021/06/16 03:03:36;;;;;;;;;;;;;;;31.30;64.02;100994.66;5083494;27;66198;-33
2021/06/16 03:06:09;;;;;;;;;;;;;;;31.33;64.38;100998.81;5088254;27;69981;-34
2021/06/16 03:08:43;;;;;;;;;;;;;;;31.36;63.85;100993.00;5085435;27;67024;-33
2021/06/16 03:11:48;;;;;;;;;;;;;;;31.34;63.89;100978.78;5101850;27;69301;-33
2021/06/16 03:14:16;;;;;;;;;;;;;;;31.42;63.90;100983.16;5086683;27;65912;-33
2021/06/16 03:17:01;;;;;;;;;;;;;;;31.44;63.87;100990.00;5093771;27;70958;-33
2021/06/16 03:19:39;;;;;;;;;;;;;;;31.46;63.98;100985.19;5087563;27;66267;-34
2021/06/16 03:22:10;;;;;;;;;;;;;;;31.48;64.01;100985.81;5089070;27;69225;-32
2021/06/16 03:24:43;;;;;;;;;;;;;;;31.51;63.52;100979.94;5083983;27;65964;-33
2021/06/16 03:27:14;;;;;;;;;;;;;;;31.52;63.48;100976.16;5084894;27;70008;-34
2021/06/16 03:29:45;;;;;;;;;;;;;;;31.54;63.59;100987.63;5085733;27;66008;-33
2021/06/16 03:32:16;;;;;;;;;;;;;;;31.56;63.48;100980.09;5096413;27;69277;-34
2021/06/16 03:34:47;;;;;;;;;;;;;;;31.57;63.48;100968.22;5088334;27;66162;-33
2021/06/16 03:37:19;;;;;;;;;;;;;;;31.60;63.46;100975.06;5081472;27;70856;-34
2021/06/16 03:39:53;;;;;;;;;;;;;;;31.62;63.53;100964.81;5084457;27;66090;-33
2021/06/16 03:42:25;;;;;;;;;;;;;;;31.65;63.57;100966.25;5083796;27;69826;-34
2021/06/16 03:44:57;;;;;;;;;;;;;;;31.66;63.35;100959.78;5082214;27;66115;-34
2021/06/16 03:47:29;;;;;;;;;;;;;;;31.69;63.08;100959.34;5083658;27;70116;-35
2021/06/16 03:50:01;;;;;;;;;;;;;;;31.71;63.13;100957.22;5085324;27;66434;-34
2021/06/16 03:52:33;;;;;;;;;;;;;;;31.72;63.01;100953.47;5083833;27;69268;-34
2021/06/16 03:55:04;;;;;;;;;;;;;;;31.74;63.09;100952.19;5088706;27;67001;-34
2021/06/16 03:57:36;;;;;;;;;;;;;;;31.77;63.10;100950.91;5089382;27;69710;-33
2021/06/16 04:00:07;;;;;;;;;;;;;;;31.80;62.90;100945.03;5081876;27;65972;-34
2021/06/16 04:02:39;;;;;;;;;;;;;;;31.80;63.07;100948.56;5083826;27;69994;-34
2021/06/16 04:05:10;;;;;;;;;;;;;;;31.85;62.81;100949.78;5087150;27;65215;-34
2021/06/16 04:07:41;;;;;;;;;;;;;;;31.87;63.17;100940.34;5088811;27;70197;-33
2021/06/16 04:10:13;;;;;;;;;;;;;;;31.90;62.63;100950.78;5080032;27;68032;-34
2021/06/16 04:12:48;;;;;;;;;;;;;;;31.91;62.88;100941.59;5084592;27;69153;-34
2021/06/16 04:15:20;;;;;;;;;;;;;;;31.94;62.47;100938.44;5087739;27;64070;-35
2021/06/16 04:17:53;;;;;;;;;;;;;;;31.96;62.47;100941.75;5091675;27;69159;-33
2021/06/16 04:20:24;;;;;;;;;;;;;;;31.98;62.64;100941.50;5090843;27;66316;-34
2021/06/16 04:22:56;;;;;;;;;;;;;;;32.00;62.67;100925.84;5087936;27;70424;-34
2021/06/16 04:25:27;;;;;;;;;;;;;;;32.03;62.29;100937.06;5087240;27;66741;-34
2021/06/16 04:27:59;;;;;;;;;;;;;;;32.06;62.50;100930.34;5085833;27;70082;-34
2021/06/16 04:30:30;;;;;;;;;;;;;;;32.08;62.85;100930.97;5089369;27;65640;-34
2021/06/16 04:33:01;;;;;;;;;;;;;;;32.11;62.30;100926.97;5085181;27;69461;-34
2021/06/16 04:35:41;;;;;;;;;;;;;;;32.13;62.39;100922.16;5083997;27;65882;-34
2021/06/16 04:38:12;;;;;;;;;;;;;;;32.15;62.34;100923.59;5080434;27;69796;-33
2021/06/16 04:40:44;;;;;;;;;;;;;;;32.18;62.26;100919.56;5086622;27;66747;-33
2021/06/16 04:43:15;;;;;;;;;;;;;;;32.20;62.13;100918.28;5088160;27;69742;-35
2021/06/16 04:45:46;;;;;;;;;;;;;;;32.24;61.83;100907.81;5088896;27;66525;-33
2021/06/16 04:48:17;;;;;;;;;;;;;;;32.28;62.20;100898.13;5092446;27;70423;-34
2021/06/16 04:50:48;;;;;;;;;;;;;;;32.28;62.05;100887.28;5085147;27;67030;-35
2021/06/16 04:53:19;;;;;;;;;;;;;;;32.30;61.95;100885.16;5079394;27;69185;-37
2021/06/16 04:55:50;;;;;;;;;;;;;;;32.32;61.91;100888.50;5086915;27;67063;-36
2021/06/16 04:58:21;;;;;;;;;;;;;;;32.35;61.80;100888.03;5078538;27;71001;-35
2021/06/16 05:00:53;;;;;;;;;;;;;;;32.38;61.72;100886.75;5087196;27;66423;-35
2021/06/16 05:03:25;;;;;;;;;;;;;;;32.40;61.52;100887.31;5081586;27;69962;-34
2021/06/16 05:05:57;;;;;;;;;;;;;;;32.42;61.95;100883.31;5088412;27;66646;-34
2021/06/16 05:08:28;;;;;;;;;;;;;;;32.43;61.61;100878.72;5083689;27;69985;-34
2021/06/16 05:10:59;;;;;;;;;;;;;;;32.44;61.79;100859.47;5075821;27;66286;-35
2021/06/16 05:13:30;;;;;;;;;;;;;;;32.45;61.53;100872.00;5083553;27;71131;-34
2021/06/16 05:16:02;;;;;;;;;;;;;;;32.49;61.15;100859.66;5075261;27;66056;-35
2021/06/16 05:18:34;;;;;;;;;;;;;;;32.51;61.77;100858.59;5074605;27;69979;-33
2021/06/16 05:21:05;;;;;;;;;;;;;;;32.54;61.54;100844.53;5088134;27;66485;-33
2021/06/16 05:23:40;;;;;;;;;;;;;;;32.58;61.59;100851.19;5086250;27;69930;-34
2021/06/16 05:26:12;;;;;;;;;;;;;;;32.59;61.42;100828.38;5089483;27;64550;-34
2021/06/16 05:28:44;;;;;;;;;;;;;;;32.61;61.22;100834.41;5084480;27;69861;-35
2021/06/16 05:31:16;;;;;;;;;;;;;;;32.61;60.93;100831.69;5078058;27;66979;-34
2021/06/16 05:33:48;;;;;;;;;;;;;;;32.62;61.22;100834.16;5088394;27;68824;-34
2021/06/16 05:36:20;;;;;;;;;;;;;;;32.65;61.18;100822.00;5086158;27;65487;-34
2021/06/16 05:38:52;;;;;;;;;;;;;;;32.65;61.17;100822.00;5090245;27;69848;-34
2021/06/16 05:41:28;;;;;;;;;;;;;;;32.67;61.26;100819.88;5097725;27;65957;-35
2021/06/16 05:44:00;;;;;;;;;;;;;;;32.67;61.03;100814.47;5094167;27;69521;-34
2021/06/16 05:46:31;;;;;;;;;;;;;;;32.68;61.25;100811.53;5074962;27;66420;-34
2021/06/16 05:49:03;;;;;;;;;;;;;;;32.67;61.12;100815.28;5086214;27;69892;-34
2021/06/16 05:51:35;;;;;;;;;;;;;;;32.70;60.90;100794.97;5095875;27;66185;-34
2021/06/16 05:54:10;;;;;;;;;;;;;;;32.69;61.05;100794.16;5086057;27;70320;-34
2021/06/16 05:56:42;;;;;;;;;;;;;;;32.70;61.05;100792.25;5082036;27;65567;-34
2021/06/16 05:59:15;;;;;;;;;;;;;;;32.70;60.84;100781.41;5087788;27;69566;-36
2021/06/16 06:01:46;;;;;;;;;;;;;;;32.70;61.02;100778.69;5093729;27;66353;-35
2021/06/16 06:04:21;;;;;;;;;;;;;;;32.72;60.88;100779.28;5077720;27;44617;-38
2021/06/16 06:06:52;;;;;;;;;;;;;;;32.73;60.91;100775.50;5075227;27;66576;-34
2021/06/16 06:09:23;;;;;;;;;;;;;;;32.76;60.86;100769.59;5083754;27;70157;-35
2021/06/16 06:11:54;;;;;;;;;;;;;;;32.76;60.87;100755.19;5088226;27;66593;-33
2021/06/16 06:14:26;;;;;;;;;;;;;;;32.75;60.55;100756.25;5090837;27;70045;-34
2021/06/16 06:17:00;;;;;;;;;;;;;;;32.76;60.62;100753.28;5084031;27;66311;-35
2021/06/16 06:19:31;;;;;;;;;;;;;;;32.78;60.88;100761.22;5090412;27;69919;-39
2021/06/16 06:22:03;;;;;;;;;;;;;;;32.78;60.84;100748.44;5050843;27;66427;-39
2021/06/16 06:24:35;;;;;;;;;;;;;;;32.83;60.60;100740.41;5091649;27;70241;-37
2021/06/16 06:27:07;;;;;;;;;;;;;;;32.87;60.93;100743.47;5071783;27;64378;-37
2021/06/16 06:29:39;;;;;;;;;;;;;;;32.88;60.58;100740.53;5085015;27;70160;-37
2021/06/16 06:32:11;;;;;;;;;;;;;;;32.93;60.55;100743.38;5076354;27;64916;-33
2021/06/16 06:34:42;;;;;;;;;;;;;;;32.96;60.46;100742.06;5088788;27;68953;-34
2021/06/16 06:37:13;;;;;;;;;;;;;;;33.01;60.40;100739.47;5077347;27;66095;-34
2021/06/16 06:39:46;;;;;;;;;;;;;;;33.04;60.37;100732.75;5085800;27;69088;-36
2021/06/16 06:42:18;;;;;;;;;;;;;;;33.06;60.33;100736.06;5088526;27;66362;-34
2021/06/16 06:44:50;;;;;;;;;;;;;;;33.07;60.21;100724.97;5079867;27;69166;-34
2021/06/16 06:47:25;;;;;;;;;;;;;;;33.08;60.04;100725.78;5085871;27;65589;-35
2021/06/16 06:49:57;;;;;;;;;;;;;;;33.08;59.99;100723.06;5077146;27;68984;-34
2021/06/16 06:52:29;;;;;;;;;;;;;;;33.09;59.99;100724.72;5081192;27;65577;-34
2021/06/16 06:55:00;;;;;;;;;;;;;;;33.08;60.02;100715.72;5089447;27;69624;-35
2021/06/16 06:57:31;;;;;;;;;;;;;;;33.08;59.97;100706.75;5080027;27;66239;-33
2021/06/16 07:00:04;;;;;;;;;;;;;;;33.08;59.81;100701.31;5083422;27;69385;-35
2021/06/16 07:02:36;;;;;;;;;;;;;;;33.09;59.93;100702.97;5078115;27;67452;-34
2021/06/16 07:05:08;;;;;;;;;;;;;;;33.09;59.98;100679.31;5089827;27;70020;-34
2021/06/16 07:07:39;;;;;;;;;;;;;;;33.11;59.79;100673.66;5090914;27;66533;-35
2021/06/16 07:10:13;;;;;;;;;;;;;;;33.13;59.72;100683.22;5086094;27;70328;-36
2021/06/16 07:12:45;;;;;;;;;;;;;;;33.17;59.94;100677.31;5094563;27;66935;-34
2021/06/16 07:15:17;;;;;;;;;;;;;;;33.18;59.63;100682.50;5087841;27;69392;-33
2021/06/16 07:17:49;;;;;;;;;;;;;;;33.21;59.52;100679.31;5086492;27;64687;-38
2021/06/16 07:20:21;;;;;;;;;;;;;;;33.23;59.48;100674.44;5088307;27;69892;-36
2021/06/16 07:22:53;;;;;;;;;;;;;;;33.24;59.56;100667.97;5073244;27;67555;-37
2021/06/16 07:25:26;;;;;;;;;;;;;;;33.25;59.44;100664.16;5079039;27;69594;-41
2021/06/16 07:27:59;;;;;;;;;;;;;;;33.26;59.51;100660.38;5078568;27;66176;-36
2021/06/16 07:30:31;;;;;;;;;;;;;;;33.25;59.20;100650.56;5078861;27;69809;-35
2021/06/16 07:33:03;;;;;;;;;;;;;;;33.26;59.32;100654.09;5082101;27;66117;-35
2021/06/16 07:35:36;;;;;;;;;;;;;;;33.26;59.52;100648.66;5077877;27;70016;-37
2021/06/16 07:38:08;;;;;;;;;;;;;;;33.25;59.52;100653.28;5079127;27;65736;-36
2021/06/16 07:40:40;;;;;;;;;;;;;;;33.26;59.55;100649.50;5083875;27;69802;-35
2021/06/16 07:43:11;;;;;;;;;;;;;;;33.28;59.51;100644.66;5080707;27;65519;-35
2021/06/16 07:45:43;;;;;;;;;;;;;;;33.29;59.49;100651.75;5082524;27;70024;-34
2021/06/16 07:48:15;;;;;;;;;;;;;;;33.30;59.18;100642.53;5082197;27;66358;-34
2021/06/16 07:50:47;;;;;;;;;;;;;;;33.30;59.32;100634.38;5084411;27;70451;-34
2021/06/16 07:53:20;;;;;;;;;;;;;;;33.30;59.58;100645.22;5083085;27;66468;-35
2021/06/16 07:55:52;;;;;;;;;;;;;;;33.32;59.48;100645.81;5079056;27;69182;-34
2021/06/16 07:58:25;;;;;;;;;;;;;;;33.33;59.46;100639.31;5088457;27;67986;-34
2021/06/16 08:00:56;;;;;;;;;;;;;;;33.33;59.35;100636.59;5080515;27;70482;-34
2021/06/16 08:03:28;;;;;;;;;;;;;;;33.34;59.41;100646.38;5081934;27;66300;-35
2021/06/16 08:05:59;;;;;;;;;;;;;;;33.34;59.21;100645.56;5083711;27;70203;-35
2021/06/16 08:08:34;;;;;;;;;;;;;;;33.34;59.35;100651.81;5081884;27;65740;-34
2021/06/16 08:11:09;;;;;;;;;;;;;;;33.34;59.21;100646.38;5085906;27;69736;-34
2021/06/16 08:13:40;;;;;;;;;;;;;;;33.35;59.21;100642.63;5092742;27;66701;-34
2021/06/16 08:16:14;;;;;;;;;;;;;;;33.34;59.16;100634.69;5092775;27;70184;-35
2021/06/16 08:18:46;;;;;;;;;;;;;;;33.36;59.24;100638.81;5086842;27;66700;-39
2021/06/16 08:21:18;;;;;;;;;;;;;;;33.37;59.09;100628.75;5070171;28;69832;-34
2021/06/16 08:23:49;;;;;;;;;;;;;;;33.37;59.07;100618.72;5077704;27;67235;-35
2021/06/16 08:26:20;;;;;;;;;;;;;;;33.39;59.11;100615.75;5087515;27;69383;-34
2021/06/16 08:28:51;;;;;;;;;;;;;;;33.40;59.07;100616.56;5080048;27;65599;-35
2021/06/16 08:31:24;;;;;;;;;;;;;;;33.41;58.95;100629.13;5082289;27;70232;-36
2021/06/16 08:33:57;;;;;;;;;;;;;;;33.41;58.87;100620.97;5086371;27;65890;-36
2021/06/16 08:36:28;;;;;;;;;;;;;;;33.41;58.92;100612.81;5087895;27;70485;-34
2021/06/16 08:39:21;;;;;;;;;;;;;;;33.38;59.04;100609.50;5085586;27;65605;-33
2021/06/16 08:41:52;;;;;;;;;;;;;;;33.40;59.04;100620.13;5082111;27;70794;-36
2021/06/16 08:44:25;;;;;;;;;;;;;;;33.40;59.13;100620.13;5095706;27;66963;-34
2021/06/16 08:46:57;;;;;;;;;;;;;;;33.40;59.11;100617.41;5090735;27;70096;-34
2021/06/16 08:49:29;;;;;;;;;;;;;;;33.41;59.16;100613.63;5085083;27;66878;-33
2021/06/16 08:52:02;;;;;;;;;;;;;;;33.42;59.04;100625.31;5073734;27;70525;-34
2021/06/16 08:54:35;;;;;;;;;;;;;;;33.42;59.17;100623.44;5093046;27;66121;-36
2021/06/16 08:57:06;;;;;;;;;;;;;;;33.43;58.81;100627.78;5072681;27;69928;-34
2021/06/16 08:59:38;;;;;;;;;;;;;;;33.42;58.69;100630.75;5084096;27;65133;-34
2021/06/16 09:02:10;;;;;;;;;;;;;;;33.42;59.03;100628.03;5079983;27;70070;-37
2021/06/16 09:04:48;;;;;;;;;;;;;;;33.40;59.19;100616.56;5082620;27;66178;-40
2021/06/16 09:07:20;;;;;;;;;;;;;;;33.41;59.14;100618.25;5082378;27;69888;-34
2021/06/16 09:10:24;;;;;;;;;;;;;;;33.41;59.12;100623.69;5078178;27;66762;-34
2021/06/16 09:12:58;;;;;;;;;;;;;;;33.41;58.94;100623.69;5073658;27;69812;-35
2021/06/16 09:15:30;;;;;;;;;;;;;;;33.41;58.94;100629.94;5084436;27;66820;-35
2021/06/16 09:18:09;;;;;;;;;;;;;;;33.42;59.06;100628.03;5088516;27;69551;-35
2021/06/16 09:20:44;;;;;;;;;;;;;;;33.42;59.16;100622.59;5078028;27;66282;-34
2021/06/16 09:23:18;;;;;;;;;;;;;;;33.41;59.10;100619.06;5079076;27;69867;-34
2021/06/16 09:26:06;;;;;;;;;;;;;;;33.42;59.16;100619.88;5086830;27;66617;-35
2021/06/16 09:28:42;;;;;;;;;;;;;;;33.43;59.10;100626.97;5100343;27;70533;-35
2021/06/16 09:31:14;;;;;;;;;;;;;;;33.43;59.23;100616.09;5083100;27;67428;-34
2021/06/16 09:33:45;;;;;;;;;;;;;;;33.44;59.12;100617.75;5081334;27;70174;-34
2021/06/16 09:36:20;;;;;;;;;;;;;;;33.43;59.12;100613.38;5091007;27;65337;-34
2021/06/16 09:38:52;;;;;;;;;;;;;;;33.43;59.13;100624.25;5081197;27;69964;-41
2021/06/16 09:41:23;;;;;;;;;;;;;;;33.43;59.12;100621.53;5079364;27;65309;-35
2021/06/16 09:43:56;;;;;;;;;;;;;;;33.43;59.23;100622.34;5080624;27;69958;-35
2021/06/16 09:46:27;;;;;;;;;;;;;;;33.43;58.89;100640.56;5084804;27;66294;-34
2021/06/16 09:48:58;;;;;;;;;;;;;;;33.43;59.00;100637.84;5081812;27;70230;-33
2021/06/16 09:51:35;;;;;;;;;;;;;;;33.43;59.10;100637.84;5074112;27;67049;-34
2021/06/16 09:54:21;;;;;;;;;;;;;;;33.42;59.01;100641.63;5081853;27;69896;-34
2021/06/16 09:56:53;;;;;;;;;;;;;;;33.42;59.05;100647.91;5080841;27;66224;-34
2021/06/16 09:59:46;;;;;;;;;;;;;;;33.42;59.00;100660.66;5081295;27;69965;-33
2021/06/16 10:02:23;;;;;;;;;;;;;;;33.42;58.92;100661.50;5089721;27;66841;-34
2021/06/16 10:04:58;;;;;;;;;;;;;;;33.42;59.01;100664.22;5078950;27;69533;-34
2021/06/16 10:07:30;;;;;;;;;;;;;;;33.42;58.95;100663.41;5080469;27;66386;-35
2021/06/16 10:10:04;;;;;;;;;;;;;;;33.41;58.94;100672.63;5078439;27;69430;-35
2021/06/16 10:12:36;;;;;;;;;;;;;;;33.41;59.13;100669.91;5100144;27;66344;-35
2021/06/16 10:15:12;;;;;;;;;;;;;;;33.40;58.96;100670.97;5083897;27;70505;-34
2021/06/16 10:17:44;;;;;;;;;;;;;;;33.38;59.29;100685.63;5082475;27;66472;-34
2021/06/16 10:20:16;;;;;;;;;;;;;;;33.37;59.32;100683.97;5083747;27;70329;-35
2021/06/16 10:22:49;;;;;;;;;;;;;;;33.36;59.39;100687.75;5080519;27;66899;-35
2021/06/16 10:25:22;;;;;;;;;;;;;;;33.36;59.46;100703.25;5080485;27;69860;-34
2021/06/16 10:27:58;;;;;;;;;;;;;;;33.34;59.17;100700.75;5080799;27;67275;-35
2021/06/16 10:30:33;;;;;;;;;;;;;;;33.32;59.28;100702.91;5087732;27;69261;-35
2021/06/16 10:33:24;;;;;;;;;;;;;;;33.31;59.49;100709.41;5080888;27;67162;-34
2021/06/16 10:36:28;;;;;;;;;;;;;;;33.31;59.58;100706.69;5067015;28;70309;-37
2021/06/16 10:38:59;;;;;;;;;;;;;;;33.29;59.50;100722.44;5049636;27;66339;-33
2021/06/16 10:41:48;;;;;;;;;;;;;;;33.28;59.71;100718.03;5087444;27;70264;-34
2021/06/16 10:44:20;;;;;;;;;;;;;;;33.28;59.49;100712.59;5079582;27;66207;-37
2021/06/16 10:46:54;;;;;;;;;;;;;;;33.26;59.72;100717.44;5085491;27;69248;-36
2021/06/16 10:49:33;;;;;;;;;;;;;;;33.26;59.92;100720.16;5076812;27;66124;-34
2021/06/16 10:52:04;;;;;;;;;;;;;;;33.24;60.57;100722.31;5077917;27;68981;-34
2021/06/16 10:54:35;;;;;;;;;;;;;;;33.22;60.88;100712.75;5082587;27;67153;-33
2021/06/16 10:57:09;;;;;;;;;;;;;;;33.22;60.54;100702.69;5082695;27;69944;-34
2021/06/16 10:59:43;;;;;;;;;;;;;;;33.17;61.00;100707.22;5082396;27;66190;-34
2021/06/16 11:02:14;;;;;;;;;;;;;;;33.22;60.92;100719.00;5083546;27;70143;-33
2021/06/16 11:04:46;;;;;;;;;;;;;;;33.22;61.12;100718.19;5086443;27;67210;-34
2021/06/16 11:07:32;;;;;;;;;;;;;;;33.23;61.20;100717.94;5088752;27;70232;-35
2021/06/16 11:10:04;;;;;;;;;;;;;;;33.21;61.27;100706.50;5071752;28;67129;-33
2021/06/16 11:12:39;;;;;;;;;;;;;;;33.22;61.49;100724.44;5078885;27;69921;-34
2021/06/16 11:15:11;;;;;;;;;;;;;;;33.22;61.39;100721.72;5092412;27;65940;-33
2021/06/16 11:17:46;;;;;;;;;;;;;;;33.21;61.49;100722.81;5086194;27;70245;-34
2021/06/16 11:20:21;;;;;;;;;;;;;;;33.21;61.58;100733.69;5089547;27;66259;-36
2021/06/16 11:23:00;;;;;;;;;;;;;;;33.20;61.78;100734.72;5093063;27;69965;-40
2021/06/16 11:25:40;;;;;;;;;;;;;;;33.19;62.83;100738.53;5087915;27;66250;-33
2021/06/16 11:28:15;;;;;;;;;;;;;;;33.10;63.67;100734.53;5093557;27;69832;-34
2021/06/16 11:30:55;;;;;;;;;;;;;;;33.04;64.28;100743.63;5093748;27;65518;-34
2021/06/16 11:33:32;;;;;;;;;;;;;;;32.99;64.14;100757.06;5092020;27;71484;-37
2021/06/16 11:36:06;;;;;;;;;;;;;;;32.93;64.90;100753.41;5096473;27;65600;-33
2021/06/16 11:38:52;;;;;;;;;;;;;;;32.87;65.25;100760.59;5086062;27;71254;-34
2021/06/16 11:41:25;;;;;;;;;;;;;;;32.85;65.61;100762.75;5088451;27;65494;-33
2021/06/16 11:44:10;;;;;;;;;;;;;;;32.83;66.11;100770.31;5087504;27;70637;-33
2021/06/16 11:46:45;;;;;;;;;;;;;;;32.77;66.36;100773.97;5095411;27;65965;-34
2021/06/16 11:49:21;;;;;;;;;;;;;;;32.78;66.11;100783.75;5087470;27;69324;-32
2021/06/16 11:51:53;;;;;;;;;;;;;;;32.80;66.01;100797.94;5083064;27;66177;-35
2021/06/16 11:54:27;;;;;;;;;;;;;;;32.79;66.41;100804.44;5088515;27;69117;-35
2021/06/16 11:57:09;;;;;;;;;;;;;;;32.78;66.51;100816.38;5082395;27;66312;-38
2021/06/16 11:59:44;;;;;;;;;;;;;;;32.77;66.32;100822.03;5081068;27;69152;-36
2021/06/16 12:02:21;;;;;;;;;;;;;;;32.76;66.59;100818.47;5086795;27;65633;-35
2021/06/16 12:05:05;;;;;;;;;;;;;;;32.77;66.15;100820.16;5046555;27;69359;-35
2021/06/16 12:07:41;;;;;;;;;;;;;;;32.75;66.00;100827.69;5089464;27;64865;-37
2021/06/16 12:10:20;;;;;;;;;;;;;;;32.73;65.73;100835.25;5081657;27;69979;-36
2021/06/16 12:12:51;;;;;;;;;;;;;;;32.71;65.71;100848.25;5091555;27;66186;-35
2021/06/16 12:15:27;;;;;;;;;;;;;;;32.71;65.80;100853.69;5088670;27;70040;-36
2021/06/16 12:17:58;;;;;;;;;;;;;;;32.71;65.96;100861.84;5081326;27;66101;-35
2021/06/16 12:20:38;;;;;;;;;;;;;;;32.72;65.79;100866.19;5094934;27;68502;-36
2021/06/16 12:23:18;;;;;;;;;;;;;;;32.70;65.93;100863.69;5085509;27;66424;-34
2021/06/16 12:25:50;;;;;;;;;;;;;;;32.70;66.29;100868.31;5092132;27;69119;-38
2021/06/16 12:28:21;;;;;;;;;;;;;;;32.61;64.28;100869.72;5085472;27;66430;-35
2021/06/16 12:30:55;;;;;;;;;;;;;;;32.43;62.08;100867.84;5081432;27;69955;-35
2021/06/16 12:36:22;;;;;;;;;;;;;;;31.97;58.32;100870.16;5078860;27;69945;-36
2021/06/16 12:39:03;;;;;;;;;;;;;;;31.87;57.75;100880.66;5081712;27;66613;-37
2021/06/16 12:41:34;;;;;;;;;;;;;;;31.71;56.69;100878.59;5083868;27;70071;-40
2021/06/16 12:44:17;;;;;;;;;;;;;;;31.62;56.47;100888.88;5081608;27;66906;-39
2021/06/16 12:46:53;;;;;;;;;;;;;;;31.51;55.61;100901.31;5074771;27;70183;-35
2021/06/16 12:49:30;;;;;;;;;;;;;;;31.36;56.54;100901.66;5079689;27;65828;-36
2021/06/16 12:52:04;;;;;;;;;;;;;;;31.30;55.92;100901.69;5083183;27;70068;-35
2021/06/16 12:54:37;;;;;;;;;;;;;;;31.24;56.83;100913.44;5072972;27;65584;-41
2021/06/16 12:57:32;;;;;;;;;;;;;;;31.16;56.16;100917.25;5068211;27;69451;-35
2021/06/16 13:00:10;;;;;;;;;;;;;;;31.07;54.92;100905.03;5088024;27;65638;-34
2021/06/16 13:02:43;;;;;;;;;;;;;;;31.00;54.11;100907.78;5078143;27;69754;-35
2021/06/16 13:05:15;;;;;;;;;;;;;;;30.89;53.44;100913.91;5078503;27;65736;-37
2021/06/16 13:07:48;;;;;;;;;;;;;;;30.80;52.38;100913.34;5084351;27;70341;-39
2021/06/16 13:10:25;;;;;;;;;;;;;;;30.78;51.93;100910.00;5084849;27;66272;-36
2021/06/16 13:13:10;;;;;;;;;;;;;;;30.71;51.56;100918.16;5079502;27;71189;-42
2021/06/16 13:15:42;;;;;;;;;;;;;;;30.67;50.56;100919.66;5086488;27;65701;-34
2021/06/16 13:18:13;;;;;;;;;;;;;;;30.59;50.72;100917.22;5076979;27;70205;-39
2021/06/16 13:20:47;;;;;;;;;;;;;;;30.48;50.03;100915.22;5085079;27;65604;-36